sensor_id;sensor_type;location;lat;lon;timestamp;P1;durP1;ratioP1;P2;durP2;ratioP2
59922;SDS011;45778;51.142;3.732;2023-08-17T00:02:20;12.73;;;8.10;;
59922;SDS011;45778;51.142;3.732;2023-08-17T00:04:46;7.72;;;6.88;;
59922;SDS011;45778;51.142;3.732;2023-08-17T00:07:11;10.32;;;7.63;;
59922;SDS011;45778;51.142;3.732;2023-08-17T00:09:38;9.93;;;7.60;;
59922;SDS011;45778;51.142;3.732;2023-08-17T00:12:04;8.07;;;6.63;;
59922;SDS011;45778;51.142;3.732;2023-08-17T00:14:30;7.47;;;6.70;;
59922;SDS011;45778;51.142;3.732;2023-08-17T00:16:56;14.55;;;7.07;;
59922;SDS011;45778;51.142;3.732;2023-08-17T00:19:21;12.98;;;7.82;;
59922;SDS011;45778;51.142;3.732;2023-08-17T00:21:47;9.60;;;6.68;;
59922;SDS011;45778;51.142;3.732;2023-08-17T00:24:13;13.55;;;7.70;;
59922;SDS011;45778;51.142;3.732;2023-08-17T00:26:38;10.80;;;6.63;;
59922;SDS011;45778;51.142;3.732;2023-08-17T00:29:04;12.68;;;6.85;;
59922;SDS011;45778;51.142;3.732;2023-08-17T00:31:30;9.13;;;6.32;;
59922;SDS011;45778;51.142;3.732;2023-08-17T00:33:56;8.02;;;5.75;;
59922;SDS011;45778;51.142;3.732;2023-08-17T00:36:21;9.35;;;5.43;;
59922;SDS011;45778;51.142;3.732;2023-08-17T00:38:47;7.47;;;5.80;;
59922;SDS011;45778;51.142;3.732;2023-08-17T00:41:13;6.22;;;5.10;;
59922;SDS011;45778;51.142;3.732;2023-08-17T00:43:38;5.15;;;4.15;;
59922;SDS011;45778;51.142;3.732;2023-08-17T00:46:04;7.68;;;3.90;;
59922;SDS011;45778;51.142;3.732;2023-08-17T00:48:30;4.97;;;3.85;;
59922;SDS011;45778;51.142;3.732;2023-08-17T00:50:56;6.20;;;4.13;;
59922;SDS011;45778;51.142;3.732;2023-08-17T00:53:25;5.05;;;3.50;;
59922;SDS011;45778;51.142;3.732;2023-08-17T00:55:54;4.78;;;3.28;;
59922;SDS011;45778;51.142;3.732;2023-08-17T00:58:20;8.27;;;3.65;;
59922;SDS011;45778;51.142;3.732;2023-08-17T01:00:46;6.85;;;3.60;;
59922;SDS011;45778;51.142;3.732;2023-08-17T01:03:12;5.78;;;3.83;;
59922;SDS011;45778;51.142;3.732;2023-08-17T01:05:38;4.88;;;3.40;;
59922;SDS011;45778;51.142;3.732;2023-08-17T01:08:04;5.45;;;3.72;;
59922;SDS011;45778;51.142;3.732;2023-08-17T01:10:52;9.43;;;3.97;;
59922;SDS011;45778;51.142;3.732;2023-08-17T01:13:22;7.35;;;3.88;;
59922;SDS011;45778;51.142;3.732;2023-08-17T01:15:53;7.43;;;3.70;;
59922;SDS011;45778;51.142;3.732;2023-08-17T01:18:35;6.32;;;3.63;;
59922;SDS011;45778;51.142;3.732;2023-08-17T01:21:02;3.78;;;3.13;;
59922;SDS011;45778;51.142;3.732;2023-08-17T01:23:30;3.30;;;2.92;;
59922;SDS011;45778;51.142;3.732;2023-08-17T01:25:56;3.22;;;2.88;;
59922;SDS011;45778;51.142;3.732;2023-08-17T01:28:22;9.10;;;3.83;;
59922;SDS011;45778;51.142;3.732;2023-08-17T01:33:33;5.10;;;3.03;;
59922;SDS011;45778;51.142;3.732;2023-08-17T01:36:05;4.13;;;2.72;;
59922;SDS011;45778;51.142;3.732;2023-08-17T01:38:41;6.85;;;2.80;;
59922;SDS011;45778;51.142;3.732;2023-08-17T01:41:09;5.90;;;2.88;;
59922;SDS011;45778;51.142;3.732;2023-08-17T01:43:41;4.32;;;2.38;;
59922;SDS011;45778;51.142;3.732;2023-08-17T01:46:12;9.15;;;3.83;;
59922;SDS011;45778;51.142;3.732;2023-08-17T01:48:40;8.48;;;3.13;;
59922;SDS011;45778;51.142;3.732;2023-08-17T01:51:06;6.43;;;2.63;;
59922;SDS011;45778;51.142;3.732;2023-08-17T01:53:32;3.78;;;3.35;;
59922;SDS011;45778;51.142;3.732;2023-08-17T01:55:57;7.45;;;2.50;;
59922;SDS011;45778;51.142;3.732;2023-08-17T01:58:23;5.10;;;2.33;;
59922;SDS011;45778;51.142;3.732;2023-08-17T02:00:48;2.63;;;2.30;;
59922;SDS011;45778;51.142;3.732;2023-08-17T02:03:14;6.40;;;2.60;;
59922;SDS011;45778;51.142;3.732;2023-08-17T02:05:43;3.35;;;2.40;;
59922;SDS011;45778;51.142;3.732;2023-08-17T02:08:10;5.30;;;2.72;;
59922;SDS011;45778;51.142;3.732;2023-08-17T02:10:36;4.85;;;2.17;;
59922;SDS011;45778;51.142;3.732;2023-08-17T02:13:02;3.38;;;2.17;;
59922;SDS011;45778;51.142;3.732;2023-08-17T02:15:27;3.58;;;3.22;;
59922;SDS011;45778;51.142;3.732;2023-08-17T02:17:53;5.03;;;2.67;;
59922;SDS011;45778;51.142;3.732;2023-08-17T02:20:19;3.90;;;2.33;;
59922;SDS011;45778;51.142;3.732;2023-08-17T02:22:44;7.10;;;2.25;;
59922;SDS011;45778;51.142;3.732;2023-08-17T02:25:10;5.78;;;2.40;;
59922;SDS011;45778;51.142;3.732;2023-08-17T02:27:36;8.65;;;2.78;;
59922;SDS011;45778;51.142;3.732;2023-08-17T02:30:02;5.20;;;3.20;;
59922;SDS011;45778;51.142;3.732;2023-08-17T02:32:28;6.95;;;2.80;;
59922;SDS011;45778;51.142;3.732;2023-08-17T02:34:54;5.68;;;3.13;;
59922;SDS011;45778;51.142;3.732;2023-08-17T02:37:20;5.40;;;3.45;;
59922;SDS011;45778;51.142;3.732;2023-08-17T02:39:46;6.65;;;2.75;;
59922;SDS011;45778;51.142;3.732;2023-08-17T02:42:11;6.90;;;2.88;;
59922;SDS011;45778;51.142;3.732;2023-08-17T02:44:37;5.70;;;2.83;;
59922;SDS011;45778;51.142;3.732;2023-08-17T02:47:03;6.18;;;3.17;;
59922;SDS011;45778;51.142;3.732;2023-08-17T02:49:28;5.78;;;3.17;;
59922;SDS011;45778;51.142;3.732;2023-08-17T02:51:54;5.53;;;2.75;;
59922;SDS011;45778;51.142;3.732;2023-08-17T02:54:20;3.63;;;2.60;;
59922;SDS011;45778;51.142;3.732;2023-08-17T02:56:45;4.80;;;3.05;;
59922;SDS011;45778;51.142;3.732;2023-08-17T02:59:11;4.82;;;2.72;;
59922;SDS011;45778;51.142;3.732;2023-08-17T03:01:36;6.47;;;3.13;;
59922;SDS011;45778;51.142;3.732;2023-08-17T03:04:02;5.75;;;3.40;;
59922;SDS011;45778;51.142;3.732;2023-08-17T03:06:28;4.68;;;2.70;;
59922;SDS011;45778;51.142;3.732;2023-08-17T03:08:54;6.47;;;2.80;;
59922;SDS011;45778;51.142;3.732;2023-08-17T03:11:20;3.83;;;2.47;;
59922;SDS011;45778;51.142;3.732;2023-08-17T03:13:46;3.63;;;2.58;;
59922;SDS011;45778;51.142;3.732;2023-08-17T03:16:13;4.60;;;2.53;;
59922;SDS011;45778;51.142;3.732;2023-08-17T03:18:39;5.63;;;2.85;;
59922;SDS011;45778;51.142;3.732;2023-08-17T03:21:05;4.57;;;2.72;;
59922;SDS011;45778;51.142;3.732;2023-08-17T03:23:32;5.75;;;2.53;;
59922;SDS011;45778;51.142;3.732;2023-08-17T03:25:58;6.00;;;3.03;;
59922;SDS011;45778;51.142;3.732;2023-08-17T03:28:23;7.38;;;2.72;;
59922;SDS011;45778;51.142;3.732;2023-08-17T03:30:54;6.30;;;2.92;;
59922;SDS011;45778;51.142;3.732;2023-08-17T03:33:20;4.28;;;2.80;;
59922;SDS011;45778;51.142;3.732;2023-08-17T03:35:46;5.53;;;2.70;;
59922;SDS011;45778;51.142;3.732;2023-08-17T03:38:12;4.75;;;2.95;;
59922;SDS011;45778;51.142;3.732;2023-08-17T03:40:38;4.63;;;2.90;;
59922;SDS011;45778;51.142;3.732;2023-08-17T03:43:04;5.32;;;2.63;;
59922;SDS011;45778;51.142;3.732;2023-08-17T03:45:29;5.97;;;2.72;;
59922;SDS011;45778;51.142;3.732;2023-08-17T03:47:56;4.68;;;2.72;;
59922;SDS011;45778;51.142;3.732;2023-08-17T03:50:21;5.57;;;3.05;;
59922;SDS011;45778;51.142;3.732;2023-08-17T03:52:47;4.45;;;3.20;;
59922;SDS011;45778;51.142;3.732;2023-08-17T03:55:13;6.03;;;2.90;;
59922;SDS011;45778;51.142;3.732;2023-08-17T03:57:38;5.90;;;3.28;;
59922;SDS011;45778;51.142;3.732;2023-08-17T04:00:04;8.20;;;3.03;;
59922;SDS011;45778;51.142;3.732;2023-08-17T04:02:31;7.05;;;3.17;;
59922;SDS011;45778;51.142;3.732;2023-08-17T04:04:57;11.32;;;3.53;;
59922;SDS011;45778;51.142;3.732;2023-08-17T04:07:22;7.45;;;2.90;;
59922;SDS011;45778;51.142;3.732;2023-08-17T04:09:48;7.78;;;3.03;;
59922;SDS011;45778;51.142;3.732;2023-08-17T04:12:14;4.82;;;2.75;;
59922;SDS011;45778;51.142;3.732;2023-08-17T04:14:40;5.28;;;3.00;;
59922;SDS011;45778;51.142;3.732;2023-08-17T04:17:06;8.70;;;3.63;;
59922;SDS011;45778;51.142;3.732;2023-08-17T04:19:31;5.45;;;3.28;;
59922;SDS011;45778;51.142;3.732;2023-08-17T04:21:57;11.15;;;3.00;;
59922;SDS011;45778;51.142;3.732;2023-08-17T04:24:23;5.25;;;2.65;;
59922;SDS011;45778;51.142;3.732;2023-08-17T04:26:49;5.60;;;2.60;;
59922;SDS011;45778;51.142;3.732;2023-08-17T04:29:14;4.55;;;2.58;;
59922;SDS011;45778;51.142;3.732;2023-08-17T04:31:40;5.47;;;3.05;;
59922;SDS011;45778;51.142;3.732;2023-08-17T04:34:06;4.45;;;2.83;;
59922;SDS011;45778;51.142;3.732;2023-08-17T04:36:31;6.10;;;3.13;;
59922;SDS011;45778;51.142;3.732;2023-08-17T04:38:57;5.38;;;2.72;;
59922;SDS011;45778;51.142;3.732;2023-08-17T04:41:23;7.30;;;3.20;;
59922;SDS011;45778;51.142;3.732;2023-08-17T04:43:49;6.22;;;3.40;;
59922;SDS011;45778;51.142;3.732;2023-08-17T04:46:15;5.97;;;3.45;;
59922;SDS011;45778;51.142;3.732;2023-08-17T04:48:40;7.57;;;3.50;;
59922;SDS011;45778;51.142;3.732;2023-08-17T04:51:06;5.03;;;3.20;;
59922;SDS011;45778;51.142;3.732;2023-08-17T04:53:31;9.43;;;4.68;;
59922;SDS011;45778;51.142;3.732;2023-08-17T04:55:58;8.38;;;4.35;;
59922;SDS011;45778;51.142;3.732;2023-08-17T04:58:24;9.25;;;3.55;;
59922;SDS011;45778;51.142;3.732;2023-08-17T05:00:50;7.03;;;3.03;;
59922;SDS011;45778;51.142;3.732;2023-08-17T05:03:16;4.95;;;2.95;;
59922;SDS011;45778;51.142;3.732;2023-08-17T05:05:42;6.65;;;3.38;;
59922;SDS011;45778;51.142;3.732;2023-08-17T05:08:07;5.03;;;2.70;;
59922;SDS011;45778;51.142;3.732;2023-08-17T05:10:33;4.88;;;3.35;;
59922;SDS011;45778;51.142;3.732;2023-08-17T05:12:59;6.05;;;2.60;;
59922;SDS011;45778;51.142;3.732;2023-08-17T05:15:25;6.95;;;2.90;;
59922;SDS011;45778;51.142;3.732;2023-08-17T05:17:50;4.70;;;2.80;;
59922;SDS011;45778;51.142;3.732;2023-08-17T05:20:16;16.67;;;4.03;;
59922;SDS011;45778;51.142;3.732;2023-08-17T05:22:42;4.60;;;2.75;;
59922;SDS011;45778;51.142;3.732;2023-08-17T05:25:08;6.65;;;3.38;;
59922;SDS011;45778;51.142;3.732;2023-08-17T05:27:34;3.95;;;2.83;;
59922;SDS011;45778;51.142;3.732;2023-08-17T05:29:59;4.70;;;2.65;;
59922;SDS011;45778;51.142;3.732;2023-08-17T05:32:25;6.57;;;3.10;;
59922;SDS011;45778;51.142;3.732;2023-08-17T05:34:51;4.65;;;2.80;;
59922;SDS011;45778;51.142;3.732;2023-08-17T05:37:16;6.25;;;2.60;;
59922;SDS011;45778;51.142;3.732;2023-08-17T05:39:43;5.30;;;2.78;;
59922;SDS011;45778;51.142;3.732;2023-08-17T05:42:08;6.20;;;2.30;;
59922;SDS011;45778;51.142;3.732;2023-08-17T05:44:35;5.38;;;3.10;;
59922;SDS011;45778;51.142;3.732;2023-08-17T05:47:00;7.30;;;2.63;;
59922;SDS011;45778;51.142;3.732;2023-08-17T05:49:26;4.30;;;2.72;;
59922;SDS011;45778;51.142;3.732;2023-08-17T05:51:52;5.30;;;2.78;;
59922;SDS011;45778;51.142;3.732;2023-08-17T05:54:18;7.05;;;2.53;;
59922;SDS011;45778;51.142;3.732;2023-08-17T05:56:43;3.15;;;2.08;;
59922;SDS011;45778;51.142;3.732;2023-08-17T05:59:12;5.68;;;3.13;;
59922;SDS011;45778;51.142;3.732;2023-08-17T06:01:39;6.00;;;2.70;;
59922;SDS011;45778;51.142;3.732;2023-08-17T06:04:05;5.03;;;2.35;;
59922;SDS011;45778;51.142;3.732;2023-08-17T06:06:31;3.97;;;2.42;;
59922;SDS011;45778;51.142;3.732;2023-08-17T06:08:57;5.68;;;2.10;;
59922;SDS011;45778;51.142;3.732;2023-08-17T06:11:22;6.80;;;2.85;;
59922;SDS011;45778;51.142;3.732;2023-08-17T06:13:49;8.07;;;2.50;;
59922;SDS011;45778;51.142;3.732;2023-08-17T06:16:14;4.07;;;2.00;;
59922;SDS011;45778;51.142;3.732;2023-08-17T06:18:41;5.28;;;2.40;;
59922;SDS011;45778;51.142;3.732;2023-08-17T06:21:07;4.07;;;2.17;;
59922;SDS011;45778;51.142;3.732;2023-08-17T06:23:33;6.72;;;2.10;;
59922;SDS011;45778;51.142;3.732;2023-08-17T06:25:59;6.18;;;2.50;;
59922;SDS011;45778;51.142;3.732;2023-08-17T06:28:25;8.32;;;2.30;;
59922;SDS011;45778;51.142;3.732;2023-08-17T06:30:52;5.78;;;2.33;;
59922;SDS011;45778;51.142;3.732;2023-08-17T06:33:18;7.63;;;2.10;;
59922;SDS011;45778;51.142;3.732;2023-08-17T06:35:44;4.85;;;2.30;;
59922;SDS011;45778;51.142;3.732;2023-08-17T06:38:10;6.85;;;3.72;;
59922;SDS011;45778;51.142;3.732;2023-08-17T06:40:35;8.45;;;4.25;;
59922;SDS011;45778;51.142;3.732;2023-08-17T06:43:01;10.43;;;4.88;;
59922;SDS011;45778;51.142;3.732;2023-08-17T06:45:27;10.32;;;3.90;;
59922;SDS011;45778;51.142;3.732;2023-08-17T06:47:53;9.48;;;4.80;;
59922;SDS011;45778;51.142;3.732;2023-08-17T06:50:18;13.98;;;4.50;;
59922;SDS011;45778;51.142;3.732;2023-08-17T06:52:44;12.25;;;5.25;;
59922;SDS011;45778;51.142;3.732;2023-08-17T06:55:10;11.77;;;5.88;;
59922;SDS011;45778;51.142;3.732;2023-08-17T06:57:35;17.08;;;6.53;;
59922;SDS011;45778;51.142;3.732;2023-08-17T07:00:02;10.82;;;6.30;;
59922;SDS011;45778;51.142;3.732;2023-08-17T07:02:30;12.93;;;5.68;;
59922;SDS011;45778;51.142;3.732;2023-08-17T07:04:56;12.45;;;6.80;;
59922;SDS011;45778;51.142;3.732;2023-08-17T07:07:22;11.55;;;5.80;;
59922;SDS011;45778;51.142;3.732;2023-08-17T07:09:47;11.18;;;4.70;;
59922;SDS011;45778;51.142;3.732;2023-08-17T07:12:13;9.32;;;4.60;;
59922;SDS011;45778;51.142;3.732;2023-08-17T07:14:39;9.85;;;4.63;;
59922;SDS011;45778;51.142;3.732;2023-08-17T07:17:04;10.82;;;4.88;;
59922;SDS011;45778;51.142;3.732;2023-08-17T07:19:30;8.75;;;3.78;;
59922;SDS011;45778;51.142;3.732;2023-08-17T07:21:56;5.40;;;3.30;;
59922;SDS011;45778;51.142;3.732;2023-08-17T07:24:21;11.95;;;4.38;;
59922;SDS011;45778;51.142;3.732;2023-08-17T07:26:47;7.18;;;4.18;;
59922;SDS011;45778;51.142;3.732;2023-08-17T07:29:13;9.57;;;3.83;;
59922;SDS011;45778;51.142;3.732;2023-08-17T07:31:38;7.82;;;3.50;;
59922;SDS011;45778;51.142;3.732;2023-08-17T07:34:07;4.57;;;2.63;;
59922;SDS011;45778;51.142;3.732;2023-08-17T07:36:33;8.23;;;2.40;;
59922;SDS011;45778;51.142;3.732;2023-08-17T07:38:59;5.80;;;1.92;;
59922;SDS011;45778;51.142;3.732;2023-08-17T07:41:25;3.03;;;1.63;;
59922;SDS011;45778;51.142;3.732;2023-08-17T07:43:51;3.45;;;1.65;;
59922;SDS011;45778;51.142;3.732;2023-08-17T07:46:17;6.45;;;2.40;;
59922;SDS011;45778;51.142;3.732;2023-08-17T07:48:42;7.47;;;3.05;;
59922;SDS011;45778;51.142;3.732;2023-08-17T07:51:08;7.45;;;2.85;;
59922;SDS011;45778;51.142;3.732;2023-08-17T07:53:34;10.57;;;3.63;;
59922;SDS011;45778;51.142;3.732;2023-08-17T07:56:00;7.75;;;3.53;;
59922;SDS011;45778;51.142;3.732;2023-08-17T07:58:26;8.32;;;2.95;;
59922;SDS011;45778;51.142;3.732;2023-08-17T08:00:51;13.95;;;3.65;;
59922;SDS011;45778;51.142;3.732;2023-08-17T08:03:17;5.70;;;2.47;;
59922;SDS011;45778;51.142;3.732;2023-08-17T08:05:43;5.43;;;2.45;;
59922;SDS011;45778;51.142;3.732;2023-08-17T08:08:08;4.50;;;2.13;;
59922;SDS011;45778;51.142;3.732;2023-08-17T08:10:34;7.30;;;2.25;;
59922;SDS011;45778;51.142;3.732;2023-08-17T08:13:00;8.23;;;2.78;;
59922;SDS011;45778;51.142;3.732;2023-08-17T08:15:25;7.93;;;2.58;;
59922;SDS011;45778;51.142;3.732;2023-08-17T08:17:51;4.45;;;2.53;;
59922;SDS011;45778;51.142;3.732;2023-08-17T08:20:17;6.57;;;2.70;;
59922;SDS011;45778;51.142;3.732;2023-08-17T08:22:42;6.35;;;3.08;;
59922;SDS011;45778;51.142;3.732;2023-08-17T08:25:08;8.38;;;3.00;;
59922;SDS011;45778;51.142;3.732;2023-08-17T08:27:34;6.05;;;2.53;;
59922;SDS011;45778;51.142;3.732;2023-08-17T08:29:59;4.30;;;2.65;;
59922;SDS011;45778;51.142;3.732;2023-08-17T08:32:25;6.03;;;2.50;;
59922;SDS011;45778;51.142;3.732;2023-08-17T08:34:50;7.22;;;2.78;;
59922;SDS011;45778;51.142;3.732;2023-08-17T08:37:16;6.40;;;3.10;;
59922;SDS011;45778;51.142;3.732;2023-08-17T08:39:49;5.55;;;3.13;;
59922;SDS011;45778;51.142;3.732;2023-08-17T08:42:18;5.20;;;2.78;;
59922;SDS011;45778;51.142;3.732;2023-08-17T08:44:45;3.42;;;2.33;;
59922;SDS011;45778;51.142;3.732;2023-08-17T08:47:11;4.03;;;2.80;;
59922;SDS011;45778;51.142;3.732;2023-08-17T08:49:39;6.57;;;2.97;;
59922;SDS011;45778;51.142;3.732;2023-08-17T08:52:08;5.22;;;2.75;;
59922;SDS011;45778;51.142;3.732;2023-08-17T08:54:43;5.55;;;2.80;;
59922;SDS011;45778;51.142;3.732;2023-08-17T08:57:14;6.32;;;3.72;;
59922;SDS011;45778;51.142;3.732;2023-08-17T08:59:42;4.88;;;2.67;;
59922;SDS011;45778;51.142;3.732;2023-08-17T09:02:13;11.95;;;4.18;;
59922;SDS011;45778;51.142;3.732;2023-08-17T09:04:43;7.45;;;3.97;;
59922;SDS011;45778;51.142;3.732;2023-08-17T09:07:12;4.97;;;3.25;;
59922;SDS011;45778;51.142;3.732;2023-08-17T09:09:42;5.55;;;3.10;;
59922;SDS011;45778;51.142;3.732;2023-08-17T09:12:09;6.15;;;3.17;;
59922;SDS011;45778;51.142;3.732;2023-08-17T09:14:35;5.78;;;3.95;;
59922;SDS011;45778;51.142;3.732;2023-08-17T09:17:02;10.73;;;4.07;;
59922;SDS011;45778;51.142;3.732;2023-08-17T09:19:29;8.30;;;3.63;;
59922;SDS011;45778;51.142;3.732;2023-08-17T09:21:57;6.93;;;3.70;;
59922;SDS011;45778;51.142;3.732;2023-08-17T09:24:23;6.70;;;4.07;;
59922;SDS011;45778;51.142;3.732;2023-08-17T09:26:49;8.80;;;4.60;;
59922;SDS011;45778;51.142;3.732;2023-08-17T09:29:19;7.43;;;3.50;;
59922;SDS011;45778;51.142;3.732;2023-08-17T09:31:46;6.68;;;3.70;;
59922;SDS011;45778;51.142;3.732;2023-08-17T09:34:13;5.97;;;3.70;;
59922;SDS011;45778;51.142;3.732;2023-08-17T09:36:41;11.40;;;3.65;;
59922;SDS011;45778;51.142;3.732;2023-08-17T09:39:06;9.55;;;4.03;;
59922;SDS011;45778;51.142;3.732;2023-08-17T09:41:38;9.73;;;4.10;;
59922;SDS011;45778;51.142;3.732;2023-08-17T09:44:06;6.40;;;3.85;;
59922;SDS011;45778;51.142;3.732;2023-08-17T09:46:32;8.55;;;3.97;;
59922;SDS011;45778;51.142;3.732;2023-08-17T09:48:58;7.50;;;3.65;;
59922;SDS011;45778;51.142;3.732;2023-08-17T09:51:24;10.32;;;3.92;;
59922;SDS011;45778;51.142;3.732;2023-08-17T09:53:53;5.05;;;3.33;;
59922;SDS011;45778;51.142;3.732;2023-08-17T09:56:20;9.05;;;3.55;;
59922;SDS011;45778;51.142;3.732;2023-08-17T09:58:48;7.47;;;3.75;;
59922;SDS011;45778;51.142;3.732;2023-08-17T10:01:14;4.80;;;3.72;;
59922;SDS011;45778;51.142;3.732;2023-08-17T10:03:42;4.53;;;3.60;;
59922;SDS011;45778;51.142;3.732;2023-08-17T10:06:09;8.70;;;4.03;;
59922;SDS011;45778;51.142;3.732;2023-08-17T10:08:39;4.55;;;3.58;;
59922;SDS011;45778;51.142;3.732;2023-08-17T10:11:08;6.22;;;3.30;;
59922;SDS011;45778;51.142;3.732;2023-08-17T10:13:37;6.18;;;3.63;;
59922;SDS011;45778;51.142;3.732;2023-08-17T10:16:10;4.95;;;3.63;;
59922;SDS011;45778;51.142;3.732;2023-08-17T10:18:45;5.00;;;3.47;;
59922;SDS011;45778;51.142;3.732;2023-08-17T10:21:32;9.70;;;4.45;;
59922;SDS011;45778;51.142;3.732;2023-08-17T10:24:04;5.18;;;3.95;;
59922;SDS011;45778;51.142;3.732;2023-08-17T10:26:32;6.47;;;4.07;;
59922;SDS011;45778;51.142;3.732;2023-08-17T10:28:58;4.60;;;3.80;;
59922;SDS011;45778;51.142;3.732;2023-08-17T10:31:27;6.50;;;3.60;;
59922;SDS011;45778;51.142;3.732;2023-08-17T10:33:54;4.50;;;3.95;;
59922;SDS011;45778;51.142;3.732;2023-08-17T10:36:20;8.32;;;4.35;;
59922;SDS011;45778;51.142;3.732;2023-08-17T10:38:47;7.15;;;3.70;;
59922;SDS011;45778;51.142;3.732;2023-08-17T10:41:13;8.70;;;4.13;;
59922;SDS011;45778;51.142;3.732;2023-08-17T10:43:55;6.90;;;4.13;;
59922;SDS011;45778;51.142;3.732;2023-08-17T10:46:31;8.80;;;3.53;;
59922;SDS011;45778;51.142;3.732;2023-08-17T10:49:00;5.90;;;4.53;;
59922;SDS011;45778;51.142;3.732;2023-08-17T10:51:28;8.60;;;4.90;;
59922;SDS011;45778;51.142;3.732;2023-08-17T10:53:53;6.43;;;4.25;;
59922;SDS011;45778;51.142;3.732;2023-08-17T10:56:26;7.97;;;4.23;;
59922;SDS011;45778;51.142;3.732;2023-08-17T10:58:53;7.63;;;4.30;;
59922;SDS011;45778;51.142;3.732;2023-08-17T11:01:52;6.70;;;4.53;;
59922;SDS011;45778;51.142;3.732;2023-08-17T11:04:16;6.38;;;4.00;;
59922;SDS011;45778;51.142;3.732;2023-08-17T11:06:43;11.60;;;5.22;;
59922;SDS011;45778;51.142;3.732;2023-08-17T11:09:09;6.78;;;4.03;;
59922;SDS011;45778;51.142;3.732;2023-08-17T11:11:35;8.23;;;4.68;;
59922;SDS011;45778;51.142;3.732;2023-08-17T11:14:01;6.82;;;4.90;;
59922;SDS011;45778;51.142;3.732;2023-08-17T11:16:27;10.98;;;4.97;;
59922;SDS011;45778;51.142;3.732;2023-08-17T11:18:53;7.13;;;4.55;;
59922;SDS011;45778;51.142;3.732;2023-08-17T11:21:20;5.00;;;4.32;;
59922;SDS011;45778;51.142;3.732;2023-08-17T11:23:46;8.98;;;4.90;;
59922;SDS011;45778;51.142;3.732;2023-08-17T11:26:19;8.35;;;4.97;;
59922;SDS011;45778;51.142;3.732;2023-08-17T11:28:44;8.98;;;4.18;;
59922;SDS011;45778;51.142;3.732;2023-08-17T11:31:12;8.27;;;4.43;;
59922;SDS011;45778;51.142;3.732;2023-08-17T11:33:40;9.07;;;4.75;;
59922;SDS011;45778;51.142;3.732;2023-08-17T11:36:06;8.07;;;4.15;;
59922;SDS011;45778;51.142;3.732;2023-08-17T11:38:37;8.30;;;4.70;;
59922;SDS011;45778;51.142;3.732;2023-08-17T11:41:04;7.38;;;4.35;;
59922;SDS011;45778;51.142;3.732;2023-08-17T11:43:30;12.05;;;4.65;;
59922;SDS011;45778;51.142;3.732;2023-08-17T11:45:57;8.15;;;4.55;;
59922;SDS011;45778;51.142;3.732;2023-08-17T11:48:24;10.27;;;4.68;;
59922;SDS011;45778;51.142;3.732;2023-08-17T11:50:51;6.55;;;5.35;;
59922;SDS011;45778;51.142;3.732;2023-08-17T11:53:17;6.53;;;4.97;;
59922;SDS011;45778;51.142;3.732;2023-08-17T11:55:42;6.88;;;4.40;;
59922;SDS011;45778;51.142;3.732;2023-08-17T11:58:09;12.55;;;5.75;;
59922;SDS011;45778;51.142;3.732;2023-08-17T12:00:35;9.95;;;5.82;;
59922;SDS011;45778;51.142;3.732;2023-08-17T12:03:04;9.80;;;4.47;;
59922;SDS011;45778;51.142;3.732;2023-08-17T12:05:30;8.63;;;4.68;;
59922;SDS011;45778;51.142;3.732;2023-08-17T12:07:57;6.43;;;4.80;;
59922;SDS011;45778;51.142;3.732;2023-08-17T12:10:27;9.52;;;5.00;;
59922;SDS011;45778;51.142;3.732;2023-08-17T12:12:56;8.40;;;4.63;;
59922;SDS011;45778;51.142;3.732;2023-08-17T12:15:24;11.23;;;5.63;;
59922;SDS011;45778;51.142;3.732;2023-08-17T12:17:51;12.27;;;7.15;;
59922;SDS011;45778;51.142;3.732;2023-08-17T12:20:21;18.33;;;10.65;;
59922;SDS011;45778;51.142;3.732;2023-08-17T12:22:47;12.65;;;9.98;;
59922;SDS011;45778;51.142;3.732;2023-08-17T12:25:13;9.20;;;5.40;;
59922;SDS011;45778;51.142;3.732;2023-08-17T12:27:39;7.13;;;4.45;;
59922;SDS011;45778;51.142;3.732;2023-08-17T12:30:11;6.43;;;4.57;;
59922;SDS011;45778;51.142;3.732;2023-08-17T12:32:53;7.22;;;6.28;;
59922;SDS011;45778;51.142;3.732;2023-08-17T12:35:19;6.13;;;5.35;;
59922;SDS011;45778;51.142;3.732;2023-08-17T12:37:47;10.70;;;5.35;;
59922;SDS011;45778;51.142;3.732;2023-08-17T12:40:13;8.13;;;5.47;;
59922;SDS011;45778;51.142;3.732;2023-08-17T12:42:38;8.63;;;5.85;;
59922;SDS011;45778;51.142;3.732;2023-08-17T12:45:04;8.38;;;5.85;;
59922;SDS011;45778;51.142;3.732;2023-08-17T12:47:30;9.85;;;5.80;;
59922;SDS011;45778;51.142;3.732;2023-08-17T12:49:56;7.72;;;5.80;;
59922;SDS011;45778;51.142;3.732;2023-08-17T12:52:21;7.82;;;5.75;;
59922;SDS011;45778;51.142;3.732;2023-08-17T12:54:47;6.80;;;5.43;;
59922;SDS011;45778;51.142;3.732;2023-08-17T12:57:13;12.18;;;7.15;;
59922;SDS011;45778;51.142;3.732;2023-08-17T12:59:38;9.02;;;6.30;;
59922;SDS011;45778;51.142;3.732;2023-08-17T13:02:04;8.77;;;6.47;;
59922;SDS011;45778;51.142;3.732;2023-08-17T13:04:30;8.70;;;6.05;;
59922;SDS011;45778;51.142;3.732;2023-08-17T13:06:56;8.95;;;6.28;;
59922;SDS011;45778;51.142;3.732;2023-08-17T13:09:21;7.63;;;6.63;;
59922;SDS011;45778;51.142;3.732;2023-08-17T13:11:47;9.05;;;6.05;;
59922;SDS011;45778;51.142;3.732;2023-08-17T13:14:14;10.40;;;6.65;;
59922;SDS011;45778;51.142;3.732;2023-08-17T13:16:40;7.40;;;5.95;;
59922;SDS011;45778;51.142;3.732;2023-08-17T13:19:06;8.35;;;5.85;;
59922;SDS011;45778;51.142;3.732;2023-08-17T13:21:32;10.88;;;6.15;;
59922;SDS011;45778;51.142;3.732;2023-08-17T13:23:58;9.43;;;6.20;;
59922;SDS011;45778;51.142;3.732;2023-08-17T13:26:23;9.93;;;6.43;;
59922;SDS011;45778;51.142;3.732;2023-08-17T13:28:49;10.70;;;6.43;;
59922;SDS011;45778;51.142;3.732;2023-08-17T13:31:15;9.77;;;6.80;;
59922;SDS011;45778;51.142;3.732;2023-08-17T13:33:40;11.65;;;6.63;;
59922;SDS011;45778;51.142;3.732;2023-08-17T13:36:06;6.65;;;5.50;;
59922;SDS011;45778;51.142;3.732;2023-08-17T13:38:32;7.15;;;6.10;;
59922;SDS011;45778;51.142;3.732;2023-08-17T13:40:57;25.50;;;7.20;;
59922;SDS011;45778;51.142;3.732;2023-08-17T13:43:23;12.02;;;7.05;;
59922;SDS011;45778;51.142;3.732;2023-08-17T13:45:48;12.48;;;8.07;;
59922;SDS011;45778;51.142;3.732;2023-08-17T13:48:14;13.52;;;10.00;;
59922;SDS011;45778;51.142;3.732;2023-08-17T13:50:40;11.98;;;9.82;;
59922;SDS011;45778;51.142;3.732;2023-08-17T13:53:06;12.93;;;10.38;;
59922;SDS011;45778;51.142;3.732;2023-08-17T13:55:31;13.38;;;9.60;;
59922;SDS011;45778;51.142;3.732;2023-08-17T13:57:57;12.98;;;9.43;;
59922;SDS011;45778;51.142;3.732;2023-08-17T14:00:24;13.32;;;10.18;;
59922;SDS011;45778;51.142;3.732;2023-08-17T14:02:50;13.25;;;9.65;;
59922;SDS011;45778;51.142;3.732;2023-08-17T14:05:16;14.13;;;9.63;;
59922;SDS011;45778;51.142;3.732;2023-08-17T14:07:42;14.93;;;9.25;;
59922;SDS011;45778;51.142;3.732;2023-08-17T14:10:07;14.18;;;9.95;;
59922;SDS011;45778;51.142;3.732;2023-08-17T14:12:33;13.15;;;10.07;;
59922;SDS011;45778;51.142;3.732;2023-08-17T14:14:59;21.23;;;13.88;;
59922;SDS011;45778;51.142;3.732;2023-08-17T14:17:25;25.33;;;19.42;;
59922;SDS011;45778;51.142;3.732;2023-08-17T14:19:51;21.33;;;14.55;;
59922;SDS011;45778;51.142;3.732;2023-08-17T14:22:16;25.35;;;12.80;;
59922;SDS011;45778;51.142;3.732;2023-08-17T14:24:42;28.50;;;18.83;;
59922;SDS011;45778;51.142;3.732;2023-08-17T14:27:08;26.00;;;18.98;;
59922;SDS011;45778;51.142;3.732;2023-08-17T14:29:33;19.10;;;14.85;;
59922;SDS011;45778;51.142;3.732;2023-08-17T14:31:59;14.02;;;11.02;;
59922;SDS011;45778;51.142;3.732;2023-08-17T14:34:25;14.77;;;10.18;;
59922;SDS011;45778;51.142;3.732;2023-08-17T14:36:51;11.50;;;9.27;;
59922;SDS011;45778;51.142;3.732;2023-08-17T14:39:16;17.85;;;9.35;;
59922;SDS011;45778;51.142;3.732;2023-08-17T14:41:42;16.75;;;13.45;;
59922;SDS011;45778;51.142;3.732;2023-08-17T14:44:08;24.85;;;17.75;;
59922;SDS011;45778;51.142;3.732;2023-08-17T14:46:34;20.23;;;15.20;;